createdAt,value
2023-04-02T00:00:10.652Z,9.81
2023-04-02T00:03:22.097Z,9.77
2023-04-02T00:06:33.029Z,9.76
2023-04-02T00:09:37.966Z,9.70
2023-04-02T00:12:40.642Z,9.76
2023-04-02T00:15:46.432Z,9.70
2023-04-02T00:18:53.802Z,9.65
2023-04-02T00:21:57.882Z,9.60
2023-04-02T00:25:07.817Z,9.67
2023-04-02T00:28:15.644Z,9.75
2023-04-02T00:31:20.359Z,9.79
2023-04-02T00:34:22.762Z,9.93
2023-04-02T00:37:28.677Z,9.94
2023-04-02T00:40:31.991Z,9.98
2023-04-02T00:43:37.082Z,10.11
2023-04-02T00:46:49.581Z,10.00
2023-04-02T00:49:59.781Z,10.01
2023-04-02T00:53:10.432Z,10.11
2023-04-02T00:56:36.862Z,10.14
2023-04-02T00:59:51.023Z,10.20
2023-04-02T01:03:16.473Z,10.12
2023-04-02T01:06:20.566Z,10.09
2023-04-02T01:09:37.715Z,10.09
2023-04-02T01:13:08.204Z,10.10
2023-04-02T01:16:38.992Z,10.13
2023-04-02T01:19:55.046Z,10.09
2023-04-02T01:23:00.631Z,10.20
2023-04-02T01:26:21.589Z,10.24
2023-04-02T01:29:32.458Z,10.20
2023-04-02T01:32:36.203Z,10.07
2023-04-02T01:35:46.779Z,10.03
2023-04-02T01:39:02.252Z,10.08
2023-04-02T01:42:36.304Z,10.01
2023-04-02T01:45:38.795Z,9.96
2023-04-02T01:48:42.558Z,9.93
2023-04-02T01:51:50.852Z,9.86
2023-04-02T01:54:54.509Z,9.96
2023-04-02T01:57:59.318Z,9.96
2023-04-02T02:01:09.831Z,9.92
2023-04-02T02:04:15.446Z,9.88
2023-04-02T02:07:20.841Z,9.91
2023-04-02T02:10:39.154Z,9.91
2023-04-02T02:13:53.191Z,9.93
2023-04-02T02:17:00.135Z,9.99
2023-04-02T02:20:10.877Z,10.03
2023-04-02T02:23:14.429Z,9.95
2023-04-02T02:26:18.941Z,10.08
2023-04-02T02:29:26.378Z,10.06
2023-04-02T02:32:32.688Z,10.02
2023-04-02T02:36:18.457Z,10.01
2023-04-02T02:39:34.848Z,10.06
2023-04-02T02:42:48.947Z,9.94
2023-04-02T02:45:54.102Z,9.93
2023-04-02T02:48:58.683Z,9.96
2023-04-02T02:52:13.503Z,9.86
2023-04-02T02:55:32.625Z,9.94
2023-04-02T02:58:42.753Z,9.91
2023-04-02T03:02:00.750Z,9.90
2023-04-02T03:05:04.956Z,9.84
2023-04-02T03:08:13.694Z,9.77
2023-04-02T03:11:29.184Z,9.87
2023-04-02T03:14:38.045Z,9.90
2023-04-02T03:18:13.397Z,9.86
2023-04-02T03:21:31.942Z,9.78
2023-04-02T03:24:46.688Z,9.83
2023-04-02T03:27:54.286Z,9.74
2023-04-02T03:31:06.076Z,9.75
2023-04-02T03:34:18.589Z,9.76
2023-04-02T03:37:26.261Z,9.66
2023-04-02T03:40:34.797Z,9.69
2023-04-02T03:43:43.528Z,9.60
2023-04-02T03:46:57.392Z,9.68
2023-04-02T03:50:26.797Z,9.64
2023-04-02T03:53:32.667Z,9.59
2023-04-02T03:56:40.412Z,9.57
2023-04-02T03:59:59.294Z,9.54
2023-04-02T04:03:12.432Z,9.42
2023-04-02T04:06:28.185Z,9.37
2023-04-02T04:09:39.374Z,9.54
2023-04-02T04:12:46.298Z,9.50
2023-04-02T04:16:00.470Z,9.62
2023-04-02T04:19:55.047Z,9.58
2023-04-02T04:23:11.134Z,9.57
2023-04-02T04:26:26.211Z,9.52
2023-04-02T04:29:45.522Z,9.46
2023-04-02T04:32:58.614Z,9.36
2023-04-02T04:36:03.825Z,9.38
2023-04-02T04:39:23.496Z,9.30
2023-04-02T04:42:31.878Z,9.36
2023-04-02T04:45:44.995Z,9.37
2023-04-02T04:49:21.571Z,9.33
2023-04-02T04:52:36.643Z,9.38
2023-04-02T04:55:44.435Z,9.33
2023-04-02T04:58:50.902Z,9.45
2023-04-02T05:02:02.212Z,9.48
2023-04-02T05:05:16.893Z,9.53
2023-04-02T05:08:30.551Z,9.57
2023-04-02T05:11:42.941Z,9.64
2023-04-02T05:14:58.390Z,9.69
2023-04-02T05:18:37.782Z,9.56
2023-04-02T05:21:44.034Z,9.79
2023-04-02T05:24:50.659Z,9.88
2023-04-02T05:27:59.229Z,9.94
2023-04-02T05:31:08.491Z,10.03
2023-04-02T05:34:13.277Z,10.22
2023-04-02T05:37:29.485Z,10.43
2023-04-02T05:40:42.365Z,10.51
2023-04-02T05:43:48.318Z,10.67
2023-04-02T05:47:06.739Z,10.74
2023-04-02T05:50:12.482Z,10.89
2023-04-02T05:53:49.932Z,11.02
2023-04-02T05:56:57.995Z,11.07
2023-04-02T06:00:07.222Z,11.13
2023-04-02T06:03:41.832Z,11.25
2023-04-02T06:06:50.648Z,11.28
2023-04-02T06:10:10.249Z,11.81
2023-04-02T06:13:19.747Z,11.63
2023-04-02T06:16:27.075Z,11.57
2023-04-02T06:19:35.802Z,11.66
2023-04-02T06:22:41.883Z,11.86
2023-04-02T06:26:06.347Z,12.01
2023-04-02T06:29:31.625Z,11.98
2023-04-02T06:32:34.878Z,12.06
2023-04-02T06:35:41.391Z,12.16
2023-04-02T06:38:44.596Z,12.17
2023-04-02T06:41:58.772Z,12.29
2023-04-02T06:45:25.667Z,12.58
2023-04-02T06:49:14.124Z,12.74
2023-04-02T06:52:26.141Z,12.98
2023-04-02T06:55:32.046Z,13.15
2023-04-02T06:58:35.162Z,13.34
2023-04-02T07:01:45.288Z,13.71
2023-04-02T07:04:48.821Z,13.89
2023-04-02T07:07:53.314Z,14.24
2023-04-02T07:10:56.893Z,14.38
2023-04-02T07:14:00.706Z,14.62
2023-04-02T07:17:03.669Z,14.51
2023-04-02T07:20:06.929Z,14.74
2023-04-02T07:23:10.413Z,14.79
2023-04-02T07:26:16.179Z,14.55
2023-04-02T07:29:19.954Z,14.65
2023-04-02T07:32:22.381Z,14.85
2023-04-02T07:35:24.903Z,14.45
2023-04-02T07:38:27.594Z,14.07
2023-04-02T07:41:30.178Z,14.26
2023-04-02T07:44:32.657Z,14.03
2023-04-02T07:47:35.439Z,14.07
2023-04-02T07:50:38.508Z,13.95
2023-04-02T07:53:41.878Z,13.80
2023-04-02T07:56:44.429Z,13.75
2023-04-02T07:59:47.472Z,13.54
2023-04-02T08:02:51.237Z,13.58
2023-04-02T08:05:56.315Z,13.54
2023-04-02T08:08:59.429Z,13.67
2023-04-02T08:12:02.197Z,13.62
2023-04-02T08:15:08.940Z,13.66
2023-04-02T08:18:12.215Z,13.80
2023-04-02T08:21:16.554Z,13.81
2023-04-02T08:24:19.962Z,13.89
2023-04-02T08:27:24.022Z,14.06
2023-04-02T08:30:27.145Z,14.14
2023-04-02T08:33:29.658Z,14.86
2023-04-02T08:36:38.398Z,15.07
2023-04-02T08:39:41.361Z,15.47
2023-04-02T08:43:16.145Z,15.95
2023-04-02T08:46:40.913Z,16.84
2023-04-02T08:49:52.478Z,17.60
2023-04-02T08:52:55.190Z,17.57
2023-04-02T08:56:17.993Z,18.14
2023-04-02T08:59:36.070Z,18.37
2023-04-02T09:02:43.509Z,18.15
2023-04-02T09:05:47.842Z,18.15
2023-04-02T09:08:51.970Z,17.36
2023-04-02T09:12:04.437Z,17.05
2023-04-02T09:15:26.048Z,17.09
2023-04-02T09:18:32.134Z,17.01
2023-04-02T09:21:40.863Z,17.24
2023-04-02T09:24:43.461Z,17.11
2023-04-02T09:27:49.967Z,17.19
2023-04-02T09:31:01.652Z,17.07
2023-04-02T09:34:31.320Z,17.34
2023-04-02T09:37:34.163Z,17.24
2023-04-02T09:40:51.484Z,17.61
2023-04-02T09:44:22.241Z,17.87
2023-04-02T09:47:27.336Z,17.80
2023-04-02T09:50:33.838Z,17.90
2023-04-02T09:53:41.836Z,17.66
2023-04-02T09:57:03.465Z,17.79
2023-04-02T10:00:21.860Z,17.48
2023-04-02T10:03:33.247Z,17.25
2023-04-02T10:06:35.725Z,18.31
2023-04-02T10:09:38.937Z,18.42
2023-04-02T10:12:43.596Z,18.16
2023-04-02T10:15:57.312Z,18.15
2023-04-02T10:19:17.843Z,17.59
2023-04-02T10:22:22.905Z,17.77
2023-04-02T10:25:30.314Z,17.44
2023-04-02T10:28:44.821Z,17.69
2023-04-02T10:31:53.399Z,18.06
2023-04-02T10:35:19.537Z,20.01
2023-04-02T10:38:28.644Z,20.78
2023-04-02T10:42:01.916Z,22.31
2023-04-02T10:45:38.654Z,22.52
2023-04-02T10:48:52.568Z,21.28
2023-04-02T10:52:00.698Z,25.48
2023-04-02T10:55:15.077Z,24.02
2023-04-02T10:58:24.298Z,25.80
2023-04-02T11:01:29.807Z,24.79
2023-04-02T11:04:42.511Z,22.97
2023-04-02T11:08:14.022Z,23.70
2023-04-02T11:11:21.497Z,25.21
2023-04-02T11:14:27.694Z,26.34
2023-04-02T11:17:30.401Z,28.63
2023-04-02T11:20:48.787Z,28.26
2023-04-02T11:24:00.936Z,31.16
2023-04-02T11:27:12.494Z,30.71
2023-04-02T11:30:27.698Z,31.96
2023-04-02T11:33:46.065Z,30.18
2023-04-02T11:36:52.957Z,28.42
2023-04-02T11:39:58.273Z,27.40
2023-04-02T11:43:32.495Z,28.35
2023-04-02T11:46:42.866Z,30.77
2023-04-02T11:50:06.233Z,29.44
2023-04-02T11:53:11.746Z,30.07
2023-04-02T11:56:34.142Z,30.82
2023-04-02T11:59:49.914Z,32.99
2023-04-02T12:03:13.447Z,29.94
2023-04-02T12:06:34.536Z,28.85
2023-04-02T12:09:56.892Z,28.81
2023-04-02T12:12:59.822Z,23.69
2023-04-02T12:16:03.368Z,22.08
2023-04-02T12:19:09.356Z,27.26
2023-04-02T12:22:28.595Z,28.00
2023-04-02T12:25:33.900Z,28.69
2023-04-02T12:28:38.271Z,26.80
2023-04-02T12:31:47.991Z,27.88
2023-04-02T12:34:53.208Z,29.65
2023-04-02T12:37:55.675Z,28.72
2023-04-02T12:41:06.674Z,28.21
2023-04-02T12:44:18.473Z,27.25
2023-04-02T12:47:21.163Z,26.60
2023-04-02T12:50:23.892Z,30.80
2023-04-02T12:53:34.879Z,30.42
2023-04-02T12:56:37.425Z,28.49
2023-04-02T12:59:40.949Z,31.08
2023-04-02T13:02:45.605Z,33.19
2023-04-02T13:05:52.641Z,31.16
2023-04-02T13:08:55.601Z,31.03
2023-04-02T13:11:58.814Z,25.70
2023-04-02T13:15:04.171Z,26.74
2023-04-02T13:18:12.611Z,28.02
2023-04-02T13:21:15.439Z,30.91
2023-04-02T13:24:23.824Z,32.98
2023-04-02T13:27:26.224Z,30.70
2023-04-02T13:30:29.484Z,30.36
2023-04-02T13:33:32.413Z,32.28
2023-04-02T13:36:35.040Z,31.46
2023-04-02T13:39:37.407Z,28.30
2023-04-02T13:42:42.110Z,29.91
2023-04-02T13:45:50.604Z,30.46
2023-04-02T13:48:54.840Z,31.27
2023-04-02T13:52:05.426Z,31.44
2023-04-02T13:55:10.313Z,30.66
2023-04-02T13:58:13.220Z,31.88
2023-04-02T14:01:16.095Z,32.20
2023-04-02T14:04:24.556Z,25.04
2023-04-02T14:07:59.458Z,29.62
2023-04-02T14:11:27.107Z,30.07
2023-04-02T14:14:32.772Z,29.00
2023-04-02T14:17:47.628Z,25.20
2023-04-02T14:21:17.405Z,23.06
2023-04-02T14:24:58.551Z,20.89
2023-04-02T14:28:11.912Z,20.14
2023-04-02T14:31:43.492Z,22.13
2023-04-02T14:34:54.775Z,24.04
2023-04-02T14:38:40.597Z,24.86
2023-04-02T14:41:52.504Z,25.50
2023-04-02T14:45:03.972Z,20.60
2023-04-02T14:48:38.575Z,18.79
2023-04-02T14:52:04.528Z,18.05
2023-04-02T14:55:26.385Z,17.79
2023-04-02T14:58:34.541Z,17.24
2023-04-02T15:01:43.347Z,16.69
2023-04-02T15:05:01.433Z,16.20
2023-04-02T15:08:39.431Z,16.28
2023-04-02T15:11:48.876Z,16.29
2023-04-02T15:14:59.198Z,16.26
2023-04-02T15:18:02.537Z,16.11
2023-04-02T15:21:20.240Z,16.33
2023-04-02T15:24:37.263Z,15.75
2023-04-02T15:27:39.711Z,15.55
2023-04-02T15:30:44.276Z,15.03
2023-04-02T15:34:01.765Z,14.63
2023-04-02T15:37:12.742Z,13.79
2023-04-02T15:40:35.300Z,13.83
2023-04-02T15:43:39.095Z,14.20
2023-04-02T15:46:55.505Z,14.53
2023-04-02T15:50:14.086Z,14.15
2023-04-02T15:53:34.925Z,14.24
2023-04-02T15:57:09.422Z,14.85
2023-04-02T16:00:33.029Z,15.46
2023-04-02T16:03:49.557Z,15.93
2023-04-02T16:07:17.051Z,16.05
2023-04-02T16:10:40.218Z,16.15
2023-04-02T16:13:45.088Z,16.01
2023-04-02T16:16:50.481Z,15.86
2023-04-02T16:20:02.452Z,15.70
2023-04-02T16:23:20.613Z,15.88
2023-04-02T16:26:47.153Z,15.84
2023-04-02T16:30:20.234Z,16.82
2023-04-02T16:33:46.078Z,18.32
2023-04-02T16:37:19.393Z,18.16
2023-04-02T16:41:04.789Z,17.62
2023-04-02T16:44:28.768Z,18.22
2023-04-02T16:47:45.349Z,17.94
2023-04-02T16:51:09.150Z,17.67
2023-04-02T16:54:20.268Z,16.75
2023-04-02T16:57:56.605Z,15.50
2023-04-02T17:01:16.308Z,15.20
2023-04-02T17:04:46.562Z,14.69
2023-04-02T17:08:02.997Z,14.03
2023-04-02T17:11:12.612Z,13.68
2023-04-02T17:14:35.020Z,13.37
2023-04-02T17:17:37.877Z,12.95
2023-04-02T17:20:41.446Z,12.83
2023-04-02T17:24:06.674Z,12.74
2023-04-02T17:27:25.623Z,12.51
2023-04-02T17:30:31.207Z,12.49
2023-04-02T17:33:34.140Z,12.47
2023-04-02T17:36:48.435Z,12.28
2023-04-02T17:40:18.635Z,12.14
2023-04-02T17:43:40.363Z,11.97
2023-04-02T17:46:57.180Z,11.68
2023-04-02T17:50:48.627Z,11.88
2023-04-02T17:54:10.492Z,11.93
2023-04-02T17:57:52.255Z,11.74
2023-04-02T18:01:06.944Z,11.65
2023-04-02T18:04:27.990Z,11.74
2023-04-02T18:08:00.456Z,11.84
2023-04-02T18:11:02.934Z,12.12
2023-04-02T18:14:18.076Z,12.17
2023-04-02T18:17:33.214Z,12.22
2023-04-02T18:21:14.790Z,11.96
2023-04-02T18:24:46.499Z,11.93
2023-04-02T18:28:14.952Z,11.94
2023-04-02T18:31:49.390Z,11.99
2023-04-02T18:35:22.568Z,11.79
2023-04-02T18:38:40.546Z,11.98
2023-04-02T18:41:52.684Z,11.82
2023-04-02T18:45:19.051Z,11.73
2023-04-02T18:48:36.922Z,11.68
2023-04-02T18:51:40.367Z,11.68
2023-04-02T18:54:55.511Z,11.72
2023-04-02T18:58:04.064Z,11.79
2023-04-02T19:01:11.575Z,11.79
2023-04-02T19:04:28.644Z,11.75
2023-04-02T19:07:36.786Z,11.67
2023-04-02T19:10:43.965Z,11.70
2023-04-02T19:13:49.004Z,11.70
2023-04-02T19:17:09.733Z,11.79
2023-04-02T19:20:26.944Z,11.93
2023-04-02T19:23:38.501Z,11.68
2023-04-02T19:27:27.211Z,11.67
2023-04-02T19:31:01.225Z,11.64
2023-04-02T19:34:34.207Z,11.41
2023-04-02T19:37:41.973Z,11.34
2023-04-02T19:41:07.008Z,11.49
2023-04-02T19:44:13.466Z,11.45
2023-04-02T19:47:18.630Z,11.29
2023-04-02T19:50:21.593Z,11.32
2023-04-02T19:53:24.426Z,11.24
2023-04-02T19:56:28.183Z,11.12
2023-04-02T19:59:31.077Z,11.12
2023-04-02T20:02:34.012Z,11.23
2023-04-02T20:05:37.095Z,11.22
2023-04-02T20:08:40.192Z,11.17
2023-04-02T20:11:43.014Z,11.23
2023-04-02T20:14:45.727Z,11.30
2023-04-02T20:17:48.400Z,11.25
2023-04-02T20:20:51.023Z,11.30
2023-04-02T20:23:54.455Z,11.22
2023-04-02T20:26:56.917Z,11.22
2023-04-02T20:29:59.720Z,11.12
2023-04-02T20:33:02.436Z,11.03
2023-04-02T20:36:08.545Z,11.03
2023-04-02T20:39:17.528Z,10.96
2023-04-02T20:42:20.069Z,10.96
2023-04-02T20:45:22.727Z,10.94
2023-04-02T20:48:30.907Z,10.95
2023-04-02T20:51:34.440Z,10.77
2023-04-02T20:54:37.042Z,10.60
2023-04-02T20:57:39.672Z,10.75
2023-04-02T21:00:42.388Z,10.83
2023-04-02T21:03:45.407Z,10.74
2023-04-02T21:06:48.675Z,10.47
2023-04-02T21:09:54.227Z,10.54
2023-04-02T21:12:56.679Z,10.45
2023-04-02T21:15:59.973Z,10.51
2023-04-02T21:19:05.960Z,10.47
2023-04-02T21:22:08.600Z,10.34
2023-04-02T21:25:11.133Z,10.25
2023-04-02T21:28:13.594Z,10.31
2023-04-02T21:31:19.363Z,10.24
2023-04-02T21:34:21.741Z,10.11
2023-04-02T21:37:24.218Z,10.28
2023-04-02T21:40:27.059Z,10.29
2023-04-02T21:43:29.432Z,10.19
2023-04-02T21:46:36.083Z,10.32
2023-04-02T21:49:38.879Z,10.32
2023-04-02T21:52:41.490Z,10.01
2023-04-02T21:55:44.055Z,10.09
2023-04-02T21:58:47.645Z,10.05
2023-04-02T22:01:52.070Z,9.95
2023-04-02T22:04:54.589Z,9.93
2023-04-02T22:07:57.059Z,9.98
2023-04-02T22:11:05.441Z,9.93
2023-04-02T22:14:08.574Z,9.75
2023-04-02T22:17:11.046Z,9.62
2023-04-02T22:20:13.752Z,9.49
2023-04-02T22:23:17.785Z,9.41
2023-04-02T22:26:23.169Z,9.34
2023-04-02T22:29:25.853Z,9.38
2023-04-02T22:32:28.377Z,9.26
2023-04-02T22:35:31.059Z,9.24
2023-04-02T22:38:34.852Z,9.28
2023-04-02T22:41:37.484Z,9.26
2023-04-02T22:44:40.270Z,9.27
2023-04-02T22:47:42.819Z,8.94
2023-04-02T22:50:50.479Z,8.89
2023-04-02T22:53:54.841Z,8.83
2023-04-02T22:56:57.336Z,8.74
2023-04-02T23:00:00.164Z,8.55
2023-04-02T23:03:03.169Z,8.43
2023-04-02T23:06:08.855Z,8.16
2023-04-02T23:09:11.434Z,8.20
2023-04-02T23:12:13.976Z,8.07
2023-04-02T23:15:17.133Z,8.03
2023-04-02T23:18:19.612Z,8.05
2023-04-02T23:21:22.782Z,7.92
2023-04-02T23:24:25.265Z,8.01
2023-04-02T23:27:27.811Z,8.01
2023-04-02T23:30:30.494Z,8.15
2023-04-02T23:33:33.556Z,8.06
2023-04-02T23:36:36.325Z,8.25
2023-04-02T23:39:39.093Z,8.12
2023-04-02T23:42:41.777Z,8.10
2023-04-02T23:45:50.671Z,8.33
2023-04-02T23:48:54.549Z,8.19
2023-04-02T23:51:58.310Z,8.29
2023-04-02T23:55:00.742Z,8.29
2023-04-02T23:58:04.076Z,8.29
